Time;durP1;ratioP1;P1;durP2;ratioP2;P2;SDS_P1;SDS_P2;PMS_P1;PMS_P2;Temp;Humidity;BMP_temperature;BMP_pressure;BME280_temperature;BME280_humidity;BME280_pressure;Samples;Min_cycle;Max_cycle;Signal;HPM_P1;HPM_P2
2023/07/22 00:01:39;;;;;;;4.78;1.15;;;15.80;99.90;;;;;;4969297;28;20580;-63
2023/07/22 00:04:05;;;;;;;6.15;1.38;;;14.00;99.90;;;;;;4965939;28;20332;-63
2023/07/22 00:06:30;;;;;;;5.85;1.13;;;15.80;99.90;;;;;;4967002;28;20237;-62
2023/07/22 00:08:56;;;;;;;4.53;1.20;;;15.80;99.90;;;;;;4969961;28;20658;-62
2023/07/22 00:11:21;;;;;;;3.95;1.30;;;15.70;99.90;;;;;;4966090;28;20666;-63
2023/07/22 00:13:47;;;;;;;7.38;1.88;;;15.80;99.90;;;;;;4970464;28;20187;-61
2023/07/22 00:16:13;;;;;;;5.00;1.40;;;15.70;99.90;;;;;;4969469;28;20693;-62
2023/07/22 00:18:38;;;;;;;6.90;1.40;;;15.70;99.90;;;;;;4967639;28;20522;-58
2023/07/22 00:21:04;;;;;;;6.05;1.45;;;17.60;99.90;;;;;;4970150;28;20227;-61
2023/07/22 00:23:30;;;;;;;5.72;1.63;;;15.70;99.90;;;;;;4972446;28;20643;-60
2023/07/22 00:25:55;;;;;;;3.38;1.40;;;15.70;99.90;;;;;;4969346;28;20235;-60
2023/07/22 00:28:21;;;;;;;6.47;1.58;;;15.70;99.90;;;;;;4970049;28;20258;-60
2023/07/22 00:30:48;;;;;;;3.78;1.23;;;15.70;99.90;;;;;;4972284;28;20468;-61
2023/07/22 00:33:14;;;;;;;4.95;1.33;;;15.70;99.90;;;;;;4971125;28;20666;-57
2023/07/22 00:35:40;;;;;;;4.90;1.20;;;15.70;99.90;;;;;;4968539;28;20180;-57
2023/07/22 00:38:06;;;;;;;6.15;1.60;;;15.60;99.90;;;;;;4969700;28;20184;-58
2023/07/22 00:40:35;;;;;;;5.70;1.88;;;15.60;99.90;;;;;;4969928;28;20179;-58
2023/07/22 00:43:01;;;;;;;9.50;1.73;;;15.40;99.90;;;;;;4971701;28;20729;-58
2023/07/22 00:45:26;;;;;;;5.50;1.63;;;15.40;99.90;;;;;;4969801;28;20310;-58
2023/07/22 00:47:52;;;;;;;6.05;2.05;;;15.40;99.90;;;;;;4969018;28;20219;-58
2023/07/22 00:50:18;;;;;;;3.83;1.63;;;15.40;99.90;;;;;;4972717;28;20271;-58
2023/07/22 00:52:44;;;;;;;7.57;1.67;;;15.40;99.90;;;;;;4969028;28;20259;-58
2023/07/22 00:55:10;;;;;;;4.75;1.50;;;15.30;99.90;;;;;;4969803;28;20487;-59
2023/07/22 00:57:36;;;;;;;3.08;1.30;;;15.30;99.90;;;;;;4968939;28;20621;-58
2023/07/22 01:00:03;;;;;;;4.82;1.50;;;15.30;99.90;;;;;;4969581;28;20266;-58
2023/07/22 01:02:28;;;;;;;5.00;1.60;;;15.30;99.90;;;;;;4971982;28;20665;-59
2023/07/22 01:04:54;;;;;;;4.82;1.50;;;15.20;99.90;;;;;;4970293;28;20219;-58
2023/07/22 01:07:20;;;;;;;7.47;1.27;;;15.10;99.90;;;;;;4968447;28;20199;-59
2023/07/22 01:09:45;;;;;;;4.72;1.88;;;15.20;99.90;;;;;;4969813;28;20207;-58
2023/07/22 01:12:12;;;;;;;9.95;1.40;;;15.10;99.90;;;;;;4969473;28;20171;-58
2023/07/22 01:14:39;;;;;;;3.70;1.90;;;15.10;99.90;;;;;;4968897;28;20192;-59
2023/07/22 01:17:07;;;;;;;3.58;1.42;;;15.00;99.90;;;;;;4973396;28;20187;-58
2023/07/22 01:19:34;;;;;;;6.28;1.45;;;15.00;99.90;;;;;;4968448;28;20180;-58
2023/07/22 01:22:01;;;;;;;2.00;1.40;;;16.20;99.90;;;;;;4969474;28;20179;-58
2023/07/22 01:24:30;;;;;;;6.63;1.48;;;14.90;99.90;;;;;;4967621;28;20565;-59
2023/07/22 01:26:57;;;;;;;5.70;2.08;;;14.90;99.90;;;;;;4972802;28;20181;-58
2023/07/22 01:29:23;;;;;;;5.35;1.35;;;14.50;99.90;;;;;;4967444;28;20208;-59
2023/07/22 01:31:51;;;;;;;4.38;1.60;;;14.70;99.90;;;;;;4971979;28;20179;-60
2023/07/22 01:34:17;;;;;;;5.68;1.50;;;14.90;99.90;;;;;;4968575;28;20302;-60
2023/07/22 01:36:44;;;;;;;4.95;1.52;;;13.90;99.90;;;;;;4969172;28;20672;-61
2023/07/22 01:39:12;;;;;;;5.75;1.83;;;14.80;99.90;;;;;;4971328;28;20214;-59
2023/07/22 01:41:38;;;;;;;4.65;1.42;;;14.80;99.90;;;;;;4969928;28;20184;-60
2023/07/22 01:44:04;;;;;;;7.45;1.55;;;14.90;99.90;;;;;;4962062;28;20560;-60
2023/07/22 01:46:30;;;;;;;3.45;1.80;;;14.90;99.90;;;;;;4970861;28;20403;-59
2023/07/22 01:48:56;;;;;;;4.15;1.65;;;14.80;99.90;;;;;;4968296;28;20688;-59
2023/07/22 01:51:22;;;;;;;3.92;1.50;;;14.80;99.90;;;;;;4971123;28;20543;-59
2023/07/22 01:53:49;;;;;;;4.03;1.88;;;14.90;99.90;;;;;;4971096;28;20187;-59
2023/07/22 01:56:16;;;;;;;5.03;1.63;;;14.80;99.90;;;;;;4969451;28;20187;-60
2023/07/22 01:58:43;;;;;;;5.63;1.60;;;14.90;99.90;;;;;;4963226;28;20227;-60
2023/07/22 02:01:09;;;;;;;6.53;2.05;;;14.90;99.90;;;;;;4967363;28;20647;-60
2023/07/22 02:03:34;;;;;;;12.15;2.17;;;14.90;99.90;;;;;;4972250;28;20187;-60
2023/07/22 02:06:04;;;;;;;4.90;1.80;;;14.90;99.90;;;;;;4969696;28;20204;-59
2023/07/22 02:08:29;;;;;;;5.85;1.75;;;14.90;99.90;;;;;;4972110;28;20187;-59
2023/07/22 02:10:59;;;;;;;5.28;1.58;;;14.90;99.90;;;;;;4967507;28;20178;-59
2023/07/22 02:13:25;;;;;;;10.93;1.75;;;14.90;99.90;;;;;;4969346;28;20215;-59
2023/07/22 02:15:51;;;;;;;3.35;1.65;;;14.90;99.90;;;;;;4967840;28;20203;-60
2023/07/22 02:18:17;;;;;;;5.07;1.90;;;14.80;99.90;;;;;;4968140;28;20184;-60
2023/07/22 02:20:43;;;;;;;5.78;2.00;;;;;;;;;;4972610;28;20199;-60
2023/07/22 02:23:09;;;;;;;5.72;1.92;;;14.90;99.90;;;;;;4970258;28;20195;-60
2023/07/22 02:25:36;;;;;;;5.32;1.58;;;14.80;99.90;;;;;;4968076;28;20607;-60
2023/07/22 02:28:01;;;;;;;12.60;2.28;;;14.80;99.90;;;;;;4968095;28;20255;-60
2023/07/22 02:30:27;;;;;;;6.22;2.20;;;14.80;99.90;;;;;;4970297;28;20183;-59
2023/07/22 02:32:53;;;;;;;6.07;1.80;;;14.80;99.90;;;;;;4968791;28;20214;-60
2023/07/22 02:35:18;;;;;;;6.05;1.95;;;14.60;99.90;;;;;;4970086;28;20179;-58
2023/07/22 02:37:44;;;;;;;3.80;1.88;;;14.70;99.90;;;;;;4967156;28;20655;-59
2023/07/22 02:40:13;;;;;;;5.53;1.92;;;14.70;99.90;;;;;;4967934;28;20346;-62
2023/07/22 02:42:39;;;;;;;6.40;2.00;;;14.70;99.90;;;;;;4969310;28;20187;-62
2023/07/22 02:45:07;;;;;;;10.50;2.47;;;14.70;99.90;;;;;;4967753;28;20252;-62
2023/07/22 02:47:34;;;;;;;7.68;1.73;;;14.70;99.90;;;;;;4967096;28;20246;-63
2023/07/22 02:50:00;;;;;;;6.45;2.20;;;14.70;99.90;;;;;;4967578;28;20671;-63
2023/07/22 02:52:25;;;;;;;7.43;1.95;;;14.70;99.90;;;;;;4971786;28;20180;-61
2023/07/22 02:55:13;;;;;;;5.97;1.95;;;14.70;99.90;;;;;;4967101;28;20191;-60
2023/07/22 02:57:40;;;;;;;5.50;1.90;;;14.60;99.90;;;;;;4967097;28;20183;-61
2023/07/22 03:00:27;;;;;;;4.60;1.92;;;14.60;99.90;;;;;;4970477;28;20203;-61
2023/07/22 03:02:54;;;;;;;10.05;1.90;;;14.60;99.90;;;;;;4969410;28;20207;-61
2023/07/22 03:05:21;;;;;;;3.88;1.73;;;14.60;99.90;;;;;;4968723;28;20230;-61
2023/07/22 03:07:46;;;;;;;4.28;1.60;;;14.50;99.90;;;;;;4965972;28;20183;-61
2023/07/22 03:10:12;;;;;;;5.57;2.10;;;14.50;99.90;;;;;;4970393;28;20643;-61
2023/07/22 03:12:38;;;;;;;6.40;1.73;;;14.50;99.90;;;;;;4969534;28;20182;-61
2023/07/22 03:15:05;;;;;;;7.95;2.05;;;14.20;99.90;;;;;;4968547;28;20252;-61
2023/07/22 03:17:31;;;;;;;10.93;2.10;;;14.40;99.90;;;;;;4970712;28;20266;-60
2023/07/22 03:19:56;;;;;;;7.03;2.38;;;14.40;99.90;;;;;;4966676;28;20567;-60
2023/07/22 03:22:22;;;;;;;6.60;2.17;;;14.40;99.90;;;;;;4967265;28;20180;-61
2023/07/22 03:24:49;;;;;;;7.60;2.22;;;14.30;99.90;;;;;;4968722;28;20216;-60
2023/07/22 03:27:17;;;;;;;6.82;1.83;;;14.30;99.90;;;;;;4967304;28;20187;-61
2023/07/22 03:29:42;;;;;;;8.05;2.00;;;14.20;99.90;;;;;;4965191;28;20181;-61
2023/07/22 03:32:08;;;;;;;8.43;2.40;;;14.20;99.90;;;;;;4967639;28;20713;-60
2023/07/22 03:34:35;;;;;;;6.45;2.10;;;14.30;99.90;;;;;;4968491;28;20286;-63
2023/07/22 03:37:00;;;;;;;11.05;2.20;;;14.20;99.90;;;;;;4969973;28;20194;-60
2023/07/22 03:39:26;;;;;;;3.42;1.80;;;14.20;99.90;;;;;;4970104;28;20263;-59
2023/07/22 03:41:52;;;;;;;8.68;2.13;;;14.20;99.90;;;;;;4969739;28;20275;-59
2023/07/22 03:44:17;;;;;;;4.63;2.15;;;14.20;99.90;;;;;;4969403;28;20219;-59
2023/07/22 03:46:43;;;;;;;4.60;2.08;;;14.20;99.90;;;;;;4969467;28;20679;-59
2023/07/22 03:49:09;;;;;;;12.57;2.22;;;14.20;99.90;;;;;;4970561;28;20679;-60
2023/07/22 03:51:34;;;;;;;9.68;2.47;;;14.20;99.90;;;;;;4966593;28;20184;-60
2023/07/22 03:54:00;;;;;;;7.05;3.13;;;14.20;99.90;;;;;;4966402;28;20650;-59
2023/07/22 03:56:26;;;;;;;5.40;1.98;;;14.20;99.90;;;;;;4972974;28;20654;-60
2023/07/22 03:58:52;;;;;;;6.22;2.10;;;14.20;99.90;;;;;;4970602;28;20250;-59
2023/07/22 04:01:18;;;;;;;8.68;1.90;;;14.30;99.90;;;;;;4972386;28;20184;-59
2023/07/22 04:03:43;;;;;;;6.15;2.17;;;14.30;99.90;;;;;;4973472;28;20565;-59
2023/07/22 04:06:09;;;;;;;7.18;2.30;;;14.30;99.90;;;;;;4973453;28;20551;-59
2023/07/22 04:08:35;;;;;;;5.95;2.38;;;14.30;99.90;;;;;;4973801;28;20262;-62
2023/07/22 04:11:00;;;;;;;5.75;2.35;;;14.40;99.90;;;;;;4973977;28;20619;-61
2023/07/22 04:13:27;;;;;;;9.48;2.00;;;14.30;99.90;;;;;;4972523;28;20180;-62
2023/07/22 04:15:52;;;;;;;6.20;1.90;;;14.40;99.90;;;;;;4974187;28;20184;-61
2023/07/22 04:18:19;;;;;;;5.38;2.00;;;14.40;99.90;;;;;;4967163;28;20689;-61
2023/07/22 04:20:45;;;;;;;5.05;1.80;;;14.40;99.90;;;;;;4965887;28;20227;-61
2023/07/22 04:23:12;;;;;;;8.02;1.90;;;14.40;99.90;;;;;;4968416;28;20248;-62
2023/07/22 04:25:47;;;;;;;8.52;2.45;;;14.30;99.90;;;;;;4973642;28;20228;-62
2023/07/22 04:28:13;;;;;;;5.15;2.42;;;14.40;99.90;;;;;;4968799;28;20176;-61
2023/07/22 04:30:39;;;;;;;7.05;2.33;;;14.40;99.90;;;;;;4980777;28;20230;-61
2023/07/22 04:33:05;;;;;;;7.05;2.50;;;14.30;99.90;;;;;;4970666;28;20188;-61
2023/07/22 04:35:33;;;;;;;3.63;2.13;;;14.40;99.90;;;;;;4971555;28;20175;-61
2023/07/22 04:37:58;;;;;;;8.35;2.35;;;14.30;99.90;;;;;;4972397;28;20176;-61
2023/07/22 04:40:25;;;;;;;5.78;2.35;;;14.30;99.90;;;;;;4970548;28;20601;-61
2023/07/22 04:42:51;;;;;;;5.07;2.20;;;14.30;99.90;;;;;;4969289;28;20171;-61
2023/07/22 04:45:18;;;;;;;3.35;2.22;;;14.40;99.90;;;;;;4969092;28;20267;-61
2023/07/22 04:47:46;;;;;;;5.00;2.17;;;14.30;99.90;;;;;;4973545;28;20227;-62
2023/07/22 04:50:13;;;;;;;6.50;2.45;;;14.30;99.90;;;;;;4969288;28;20250;-62
2023/07/22 04:52:41;;;;;;;7.63;2.67;;;14.30;99.90;;;;;;4973612;28;20206;-62
2023/07/22 04:55:10;;;;;;;4.57;2.50;;;14.30;99.90;;;;;;4968951;28;20285;-62
2023/07/22 04:57:36;;;;;;;7.07;2.78;;;14.30;99.90;;;;;;4969802;28;20185;-62
2023/07/22 05:00:06;;;;;;;3.80;2.28;;;14.30;99.90;;;;;;4969391;28;20264;-62
2023/07/22 05:02:33;;;;;;;5.57;2.65;;;14.30;99.90;;;;;;4964714;28;20206;-62
2023/07/22 05:04:58;;;;;;;7.43;2.78;;;14.30;99.90;;;;;;4968662;28;20223;-62
2023/07/22 05:07:24;;;;;;;5.78;2.72;;;14.30;99.90;;;;;;4971857;28;20616;-61
2023/07/22 05:09:51;;;;;;;6.68;3.00;;;14.40;99.90;;;;;;4968560;28;20180;-62
2023/07/22 05:12:17;;;;;;;6.00;2.97;;;14.40;99.90;;;;;;4969330;28;20554;-61
2023/07/22 05:14:44;;;;;;;7.80;3.45;;;14.40;99.90;;;;;;4971757;28;20188;-62
2023/07/22 05:17:09;;;;;;;6.65;3.00;;;14.20;99.90;;;;;;4969885;28;20219;-61
2023/07/22 05:19:35;;;;;;;7.57;3.30;;;14.40;99.90;;;;;;4968559;28;20203;-62
2023/07/22 05:22:01;;;;;;;10.93;3.10;;;14.50;99.90;;;;;;4969132;28;20180;-62
2023/07/22 05:24:27;;;;;;;8.27;2.70;;;14.50;99.90;;;;;;4972780;28;20266;-61
2023/07/22 05:26:53;;;;;;;7.38;2.95;;;14.60;99.90;;;;;;4971355;28;20180;-61
2023/07/22 05:29:19;;;;;;;3.65;2.40;;;14.60;99.90;;;;;;4969007;28;20183;-62
2023/07/22 05:31:46;;;;;;;4.38;2.90;;;14.60;99.90;;;;;;4971464;28;20180;-61
2023/07/22 05:34:12;;;;;;;6.53;3.15;;;14.60;99.90;;;;;;4969083;28;20187;-61
2023/07/22 05:36:38;;;;;;;7.40;3.25;;;14.70;99.90;;;;;;4970119;28;20267;-61
2023/07/22 05:39:03;;;;;;;5.65;2.95;;;14.60;99.90;;;;;;4970893;28;20271;-60
2023/07/22 05:41:29;;;;;;;5.93;3.00;;;14.70;99.90;;;;;;4968252;28;20172;-60
2023/07/22 05:43:55;;;;;;;8.10;3.35;;;14.70;99.90;;;;;;4968668;28;20258;-61
2023/07/22 05:46:21;;;;;;;5.32;2.85;;;14.70;99.90;;;;;;4971692;28;20328;-61
2023/07/22 05:48:46;;;;;;;5.35;3.15;;;14.80;99.90;;;;;;4968862;28;20192;-61
2023/07/22 05:51:12;;;;;;;7.25;3.42;;;14.80;99.90;;;;;;4968735;28;20195;-61
2023/07/22 05:53:39;;;;;;;8.90;3.08;;;14.80;99.90;;;;;;4967820;28;20218;-60
2023/07/22 05:56:05;;;;;;;5.90;2.60;;;14.70;99.90;;;;;;4972669;28;20230;-60
2023/07/22 05:58:30;;;;;;;9.95;3.20;;;14.80;99.90;;;;;;4966858;28;20650;-60
2023/07/22 06:00:56;;;;;;;7.25;3.25;;;14.80;99.90;;;;;;4968427;28;20180;-60
2023/07/22 06:03:22;;;;;;;8.13;2.88;;;15.00;99.90;;;;;;4969481;28;20214;-60
2023/07/22 06:05:48;;;;;;;7.80;3.33;;;15.00;99.90;;;;;;4970361;28;20219;-60
2023/07/22 06:08:14;;;;;;;7.55;3.15;;;15.10;99.90;;;;;;4967790;28;20176;-60
2023/07/22 06:10:42;;;;;;;6.13;2.88;;;15.20;99.90;;;;;;4968373;28;20191;-60
2023/07/22 06:13:08;;;;;;;4.00;2.45;;;15.10;99.90;;;;;;4971347;28;20206;-60
2023/07/22 06:15:34;;;;;;;6.45;3.22;;;13.60;99.90;;;;;;4968578;28;20191;-60
2023/07/22 06:18:00;;;;;;;6.97;3.17;;;15.10;99.90;;;;;;4967681;28;20782;-61
2023/07/22 06:20:26;;;;;;;5.78;2.72;;;15.20;99.90;;;;;;4967912;28;20284;-60
2023/07/22 06:22:52;;;;;;;7.65;3.40;;;15.10;99.90;;;;;;4972060;28;20180;-60
2023/07/22 06:25:18;;;;;;;8.05;3.50;;;17.50;99.90;;;;;;4964880;28;20215;-60
2023/07/22 06:27:44;;;;;;;8.90;3.78;;;15.20;99.90;;;;;;4971913;28;20643;-60
2023/07/22 06:30:10;;;;;;;8.80;4.63;;;15.30;99.90;;;;;;4967680;28;20176;-63
2023/07/22 06:32:38;;;;;;;10.27;4.60;;;15.30;99.90;;;;;;4972218;28;20179;-64
2023/07/22 06:35:04;;;;;;;10.60;4.22;;;15.30;99.90;;;;;;4967392;28;20275;-61
2023/07/22 06:37:30;;;;;;;6.38;3.50;;;15.40;99.90;;;;;;4968230;28;20695;-58
2023/07/22 06:39:55;;;;;;;5.68;3.80;;;15.50;99.90;;;;;;4962557;28;20279;-58
2023/07/22 06:42:21;;;;;;;7.65;4.20;;;15.60;99.90;;;;;;4970461;28;20190;-59
2023/07/22 06:44:47;;;;;;;6.25;4.13;;;15.60;99.90;;;;;;4966777;28;20347;-58
2023/07/22 06:47:13;;;;;;;9.40;4.68;;;15.50;99.90;;;;;;4970472;28;20690;-59
2023/07/22 06:49:40;;;;;;;7.25;4.50;;;15.60;99.90;;;;;;4970676;28;20693;-61
2023/07/22 06:52:06;;;;;;;8.35;5.07;;;15.50;99.90;;;;;;4968473;28;20283;-61
2023/07/22 06:54:32;;;;;;;8.05;4.22;;;15.50;99.90;;;;;;4959045;28;20267;-61
2023/07/22 06:56:58;;;;;;;10.18;4.32;;;15.50;99.90;;;;;;4961433;28;20176;-62
2023/07/22 06:59:23;;;;;;;6.30;4.05;;;15.50;99.90;;;;;;4971224;28;20188;-62
2023/07/22 07:01:49;;;;;;;7.22;4.10;;;15.50;99.90;;;;;;4966113;28;20184;-62
2023/07/22 07:04:15;;;;;;;10.07;4.63;;;15.50;99.90;;;;;;4967218;28;20207;-62
2023/07/22 07:06:40;;;;;;;6.88;4.50;;;15.50;99.90;;;;;;4966758;28;20199;-62
2023/07/22 07:09:06;;;;;;;6.38;4.03;;;15.60;99.90;;;;;;4970093;28;20535;-62
2023/07/22 07:11:31;;;;;;;10.80;4.43;;;15.60;99.90;;;;;;4968340;28;20555;-59
2023/07/22 07:13:57;;;;;;;7.88;3.90;;;15.60;99.90;;;;;;4970795;28;20176;-60
2023/07/22 07:16:28;;;;;;;9.65;4.68;;;15.70;99.90;;;;;;4966870;28;20539;-60
2023/07/22 07:18:55;;;;;;;10.05;4.95;;;15.70;99.90;;;;;;4966579;28;20200;-59
2023/07/22 07:21:21;;;;;;;7.03;4.28;;;15.80;99.90;;;;;;4969632;28;20204;-59
2023/07/22 07:23:48;;;;;;;8.45;4.60;;;15.80;99.90;;;;;;4966672;28;20189;-59
2023/07/22 07:26:14;;;;;;;6.10;4.13;;;15.90;99.90;;;;;;4970031;28;20725;-59
2023/07/22 07:28:40;;;;;;;8.38;4.20;;;16.00;99.90;;;;;;4970554;28;20183;-60
2023/07/22 07:31:06;;;;;;;10.73;4.35;;;16.00;99.90;;;;;;4974259;28;20635;-60
2023/07/22 07:33:32;;;;;;;8.75;4.60;;;16.00;99.90;;;;;;4971659;28;20187;-59
2023/07/22 07:35:58;;;;;;;8.77;4.68;;;15.90;99.90;;;;;;4973454;28;20183;-59
2023/07/22 07:38:24;;;;;;;9.73;4.80;;;15.50;99.90;;;;;;4973085;28;20183;-60
2023/07/22 07:40:55;;;;;;;8.00;4.55;;;15.80;99.90;;;;;;4970791;28;20207;-60
2023/07/22 07:43:21;;;;;;;8.35;4.35;;;15.80;99.90;;;;;;4971948;28;20547;-60
2023/07/22 07:45:46;;;;;;;11.13;4.72;;;15.80;99.90;;;;;;4962142;28;20216;-61
2023/07/22 07:48:12;;;;;;;14.55;4.47;;;;;;;;;;4973613;28;20219;-60
2023/07/22 07:50:38;;;;;;;10.15;4.63;;;15.60;99.90;;;;;;4970828;28;20319;-60
2023/07/22 07:53:04;;;;;;;9.98;4.93;;;15.80;99.90;;;;;;4971175;28;20648;-60
2023/07/22 07:55:29;;;;;;;13.50;4.80;;;15.70;99.90;;;;;;4969858;28;20253;-58
2023/07/22 07:57:55;;;;;;;8.13;4.15;;;15.70;99.90;;;;;;4973476;28;20270;-59
2023/07/22 08:00:21;;;;;;;8.93;5.30;;;15.70;99.90;;;;;;4966947;28;20260;-59
2023/07/22 08:02:47;;;;;;;10.85;5.72;;;15.70;99.90;;;;;;4973792;28;20278;-58
2023/07/22 08:05:12;;;;;;;10.18;5.40;;;15.60;99.90;;;;;;4970156;28;20227;-58
2023/07/22 08:07:39;;;;;;;10.77;5.72;;;15.70;99.90;;;;;;4973963;28;20195;-58
2023/07/22 08:10:07;;;;;;;10.23;4.85;;;15.70;99.90;;;;;;4972932;28;20531;-58
2023/07/22 08:12:33;;;;;;;7.93;4.70;;;15.60;99.90;;;;;;4971477;28;20172;-58
2023/07/22 08:14:59;;;;;;;9.77;5.22;;;15.70;99.90;;;;;;4968655;28;20210;-58
2023/07/22 08:17:25;;;;;;;10.05;4.55;;;15.60;99.90;;;;;;4973177;28;20526;-58
2023/07/22 08:19:51;;;;;;;9.73;4.88;;;15.50;99.90;;;;;;4972690;28;20662;-57
2023/07/22 08:22:17;;;;;;;9.52;5.20;;;15.50;99.90;;;;;;4969351;28;20183;-58
2023/07/22 08:24:43;;;;;;;10.15;4.90;;;15.50;99.90;;;;;;4973933;28;20207;-58
2023/07/22 08:27:09;;;;;;;8.07;4.47;;;15.30;99.90;;;;;;4969405;28;20606;-59
2023/07/22 08:29:34;;;;;;;10.60;4.38;;;15.10;99.90;;;;;;4973518;28;20659;-58
2023/07/22 08:32:00;;;;;;;8.43;5.05;;;15.30;99.90;;;;;;4966844;28;20184;-58
2023/07/22 08:34:26;;;;;;;9.38;4.85;;;15.20;99.90;;;;;;4972123;28;20180;-58
2023/07/22 08:36:52;;;;;;;8.25;4.28;;;15.10;99.90;;;;;;4971664;28;20179;-58
2023/07/22 08:39:18;;;;;;;11.13;4.65;;;15.10;99.90;;;;;;4970714;28;20238;-58
2023/07/22 08:41:50;;;;;;;10.38;4.60;;;15.20;99.90;;;;;;4972424;28;20188;-58
2023/07/22 08:44:20;;;;;;;8.88;4.53;;;15.30;99.90;;;;;;4970243;28;20207;-59
2023/07/22 08:46:46;;;;;;;7.85;4.03;;;15.20;99.90;;;;;;4970633;28;20291;-58
2023/07/22 08:49:12;;;;;;;7.90;4.00;;;15.20;99.90;;;;;;4970985;28;20180;-58
2023/07/22 08:51:39;;;;;;;7.63;3.92;;;15.10;99.90;;;;;;4968555;28;20607;-59
2023/07/22 08:54:06;;;;;;;9.68;4.47;;;15.10;99.90;;;;;;4969709;28;20214;-58
2023/07/22 08:56:32;;;;;;;12.05;5.13;;;15.00;99.90;;;;;;4969691;28;20184;-59
2023/07/22 08:58:59;;;;;;;12.88;4.95;;;15.10;99.90;;;;;;4971443;28;20196;-59
2023/07/22 09:01:25;;;;;;;7.38;4.43;;;15.00;99.90;;;;;;4972009;28;20312;-57
2023/07/22 09:03:54;;;;;;;10.00;4.60;;;15.10;99.90;;;;;;4968967;28;20195;-58
2023/07/22 09:06:19;;;;;;;12.88;5.10;;;15.10;99.90;;;;;;4972817;28;20184;-58
2023/07/22 09:08:46;;;;;;;12.40;6.28;;;14.90;99.90;;;;;;4970409;28;20198;-57
2023/07/22 09:11:12;;;;;;;9.48;5.15;;;15.10;99.90;;;;;;4968919;28;20648;-59
2023/07/22 09:13:40;;;;;;;9.05;4.60;;;15.20;99.90;;;;;;4971201;28;20246;-59
2023/07/22 09:16:07;;;;;;;7.10;4.97;;;15.50;99.90;;;;;;4970408;28;20191;-59
2023/07/22 09:18:34;;;;;;;7.82;4.95;;;15.10;99.90;;;;;;4970040;28;20635;-59
2023/07/22 09:21:00;;;;;;;12.00;5.45;;;15.30;99.90;;;;;;4968651;28;20721;-60
2023/07/22 09:23:35;;;;;;;14.55;5.78;;;15.20;99.90;;;;;;4970032;28;20164;-57
2023/07/22 09:26:12;;;;;;;8.95;5.50;;;15.20;99.90;;;;;;4966020;28;20210;-59
2023/07/22 09:28:52;;;;;;;14.35;5.50;;;15.20;99.90;;;;;;4972816;28;20198;-58
2023/07/22 09:31:20;;;;;;;11.52;4.32;;;15.30;99.90;;;;;;4969579;28;20195;-58
2023/07/22 09:33:46;;;;;;;10.52;5.57;;;15.20;99.90;;;;;;4968443;28;20187;-58
2023/07/22 09:36:12;;;;;;;8.98;5.35;;;15.30;99.90;;;;;;4971413;28;20513;-59
2023/07/22 09:38:38;;;;;;;11.93;6.38;;;15.30;99.90;;;;;;4968370;28;20176;-59
2023/07/22 09:41:04;;;;;;;8.35;4.90;;;15.40;99.90;;;;;;4971511;28;20203;-58
2023/07/22 09:43:30;;;;;;;10.05;5.63;;;14.90;99.90;;;;;;4967939;28;20191;-58
2023/07/22 09:46:05;;;;;;;11.75;5.93;;;15.30;99.90;;;;;;4966723;28;20738;-58
2023/07/22 09:48:42;;;;;;;9.48;5.38;;;15.40;99.90;;;;;;4969856;28;20211;-57
2023/07/22 09:51:17;;;;;;;11.82;6.30;;;15.30;99.90;;;;;;4967568;28;20184;-58
2023/07/22 09:53:47;;;;;;;11.15;6.28;;;15.30;99.90;;;;;;4966431;28;20302;-58
2023/07/22 09:56:13;;;;;;;9.90;5.63;;;15.40;99.90;;;;;;4968623;28;20311;-58
2023/07/22 09:58:40;;;;;;;14.48;6.13;;;15.40;99.90;;;;;;4971642;28;20262;-58
2023/07/22 10:01:07;;;;;;;11.63;6.18;;;15.40;99.90;;;;;;4968571;28;20238;-58
2023/07/22 10:03:36;;;;;;;14.63;6.00;;;15.30;99.90;;;;;;4967350;28;20187;-57
2023/07/22 10:06:05;;;;;;;15.10;6.35;;;15.50;99.90;;;;;;4967993;28;20212;-58
2023/07/22 10:08:35;;;;;;;13.00;6.15;;;15.30;99.90;;;;;;4971789;28;20650;-59
2023/07/22 10:11:05;;;;;;;9.55;4.78;;;15.40;99.90;;;;;;4968714;28;20242;-58
2023/07/22 10:13:32;;;;;;;8.05;4.80;;;15.30;99.90;;;;;;4968641;28;20188;-58
2023/07/22 10:15:58;;;;;;;6.30;4.10;;;15.30;99.90;;;;;;4968058;28;20255;-58
2023/07/22 10:18:25;;;;;;;9.18;4.53;;;15.30;99.90;;;;;;4971290;28;20646;-58
2023/07/22 10:20:53;;;;;;;8.98;5.30;;;15.40;99.90;;;;;;4966943;28;20231;-58
2023/07/22 10:23:20;;;;;;;7.50;4.05;;;15.40;99.90;;;;;;4971174;28;20176;-59
2023/07/22 10:25:46;;;;;;;9.05;5.43;;;15.40;99.90;;;;;;4963678;28;20212;-58
2023/07/22 10:28:13;;;;;;;9.85;5.60;;;15.40;99.90;;;;;;4971423;28;20188;-59
2023/07/22 10:30:40;;;;;;;8.48;5.05;;;15.40;99.90;;;;;;4967652;28;20211;-58
2023/07/22 10:33:06;;;;;;;9.05;4.93;;;15.30;99.90;;;;;;4966213;28;20176;-59
2023/07/22 10:35:31;;;;;;;10.18;5.75;;;15.30;99.90;;;;;;4968334;28;20397;-59
2023/07/22 10:38:10;;;;;;;11.90;5.53;;;15.30;99.90;;;;;;4969233;28;20172;-59
2023/07/22 10:40:55;;;;;;;8.30;4.40;;;15.30;99.90;;;;;;4969113;28;20546;-58
2023/07/22 10:43:33;;;;;;;9.13;5.40;;;15.30;99.90;;;;;;4963207;28;20186;-58
2023/07/22 10:46:13;;;;;;;7.80;4.13;;;15.40;99.90;;;;;;4970141;28;20717;-58
2023/07/22 10:48:41;;;;;;;9.20;5.85;;;15.30;99.90;;;;;;4967132;28;20669;-58
2023/07/22 10:51:15;;;;;;;8.80;4.85;;;15.30;99.90;;;;;;4971261;28;20183;-59
2023/07/22 10:53:48;;;;;;;9.32;4.82;;;15.40;99.90;;;;;;4966698;28;20186;-59
2023/07/22 10:56:20;;;;;;;10.40;4.82;;;15.40;99.90;;;;;;4968491;28;20206;-59
2023/07/22 10:58:48;;;;;;;8.57;5.10;;;15.40;99.90;;;;;;4966943;28;20656;-58
2023/07/22 11:01:28;;;;;;;9.68;4.25;;;15.50;99.90;;;;;;4967494;28;20329;-59
2023/07/22 11:04:32;;;;;;;6.20;4.43;;;15.50;99.90;;;;;;4969413;28;20786;-59
2023/07/22 11:06:59;;;;;;;5.80;3.75;;;15.50;99.90;;;;;;4964686;28;20630;-58
2023/07/22 11:09:34;;;;;;;5.85;3.60;;;15.60;99.90;;;;;;4969757;28;20179;-59
2023/07/22 11:12:01;;;;;;;7.28;3.88;;;15.80;99.90;;;;;;4970401;28;20179;-58
2023/07/22 11:14:30;;;;;;;6.80;3.60;;;15.60;99.90;;;;;;4967179;28;20239;-59
2023/07/22 11:16:58;;;;;;;7.65;3.80;;;15.70;99.90;;;;;;4966965;28;20223;-58
2023/07/22 11:19:25;;;;;;;8.90;3.25;;;15.70;99.90;;;;;;4966830;28;20180;-58
2023/07/22 11:21:52;;;;;;;6.97;3.78;;;15.70;99.90;;;;;;4969267;28;20189;-58
2023/07/22 11:24:19;;;;;;;8.85;3.72;;;15.70;99.90;;;;;;4965692;28;20216;-58
2023/07/22 11:26:45;;;;;;;7.10;3.80;;;15.70;99.90;;;;;;4970821;28;20179;-57
2023/07/22 11:29:12;;;;;;;5.45;2.88;;;15.90;99.90;;;;;;4967380;28;20267;-59
2023/07/22 11:31:42;;;;;;;6.70;3.22;;;15.90;99.90;;;;;;4964919;28;20187;-58
2023/07/22 11:34:16;;;;;;;7.25;3.30;;;15.80;99.90;;;;;;4966789;28;20188;-58
2023/07/22 11:36:43;;;;;;;9.23;3.97;;;15.80;99.90;;;;;;4965584;28;20188;-58
2023/07/22 11:39:14;;;;;;;8.00;3.50;;;15.70;99.90;;;;;;4967560;28;20183;-58
2023/07/22 11:41:41;;;;;;;5.15;3.30;;;15.80;99.90;;;;;;4969272;28;20230;-59
2023/07/22 11:44:09;;;;;;;5.00;3.15;;;15.80;99.90;;;;;;4961743;28;20180;-58
2023/07/22 11:46:54;;;;;;;4.13;2.80;;;15.90;99.90;;;;;;4970774;28;20247;-58
2023/07/22 11:49:29;;;;;;;5.13;2.50;;;15.90;99.90;;;;;;4960792;28;20183;-58
2023/07/22 11:52:09;;;;;;;5.32;2.80;;;15.90;99.90;;;;;;4963589;28;20190;-58
2023/07/22 11:54:40;;;;;;;4.82;2.63;;;15.90;99.90;;;;;;4966063;28;20662;-57
2023/07/22 11:57:14;;;;;;;5.07;2.60;;;15.70;99.90;;;;;;4968404;28;20685;-58
2023/07/22 11:59:45;;;;;;;2.40;1.70;;;15.90;99.90;;;;;;4963893;28;20179;-59
2023/07/22 12:02:19;;;;;;;4.28;2.38;;;16.00;99.90;;;;;;4968500;28;20185;-59
2023/07/22 12:04:51;;;;;;;3.53;1.77;;;15.90;99.90;;;;;;4968014;28;20207;-58
2023/07/22 12:07:25;;;;;;;4.15;1.88;;;16.10;99.90;;;;;;4964605;28;20212;-58
2023/07/22 12:09:54;;;;;;;1.92;1.48;;;16.20;99.90;;;;;;4968575;28;20214;-58
2023/07/22 12:12:20;;;;;;;3.92;2.33;;;16.20;99.90;;;;;;4966004;28;20183;-58
2023/07/22 12:14:46;;;;;;;3.17;1.75;;;16.30;99.90;;;;;;4968162;28;20188;-58
2023/07/22 12:17:12;;;;;;;3.00;1.92;;;16.30;99.90;;;;;;4969773;28;20694;-57
2023/07/22 12:19:37;;;;;;;2.67;1.30;;;16.30;99.90;;;;;;4973394;28;20211;-58
2023/07/22 12:22:03;;;;;;;3.75;2.10;;;16.40;99.90;;;;;;4970370;28;20543;-57
2023/07/22 12:24:30;;;;;;;4.10;1.98;;;16.40;99.90;;;;;;4972289;28;20199;-58
2023/07/22 12:26:55;;;;;;;3.90;2.25;;;16.40;99.90;;;;;;4970347;28;20175;-58
2023/07/22 12:29:22;;;;;;;2.05;1.60;;;16.40;99.90;;;;;;4970245;28;20276;-58
2023/07/22 12:31:48;;;;;;;3.47;2.40;;;16.40;99.90;;;;;;4972106;28;20188;-59
2023/07/22 12:34:13;;;;;;;5.80;2.70;;;16.50;99.90;;;;;;4969401;28;20187;-58
2023/07/22 12:36:40;;;;;;;3.42;2.30;;;16.50;99.90;;;;;;4973137;28;20554;-59
2023/07/22 12:39:06;;;;;;;3.20;2.47;;;16.60;99.90;;;;;;4970558;28;20179;-58
2023/07/22 12:41:31;;;;;;;5.32;2.75;;;16.90;99.90;;;;;;4964973;28;20183;-58
2023/07/22 12:43:58;;;;;;;3.70;2.22;;;16.80;99.90;;;;;;4968815;28;20678;-58
2023/07/22 12:46:23;;;;;;;4.93;2.47;;;17.00;99.90;;;;;;4969535;28;20207;-58